Flight Track Log - Related Links

Times and Time Zones

All times are in EDT time to prevent confusion due to time zone crossing. See the RPA3253 flight status page for this flight to view local times or setup timezone preferences in your user account.

Time Position Orientation Groundspeed Altitude Reporting Facility
EDT Latitude Longitude Course Direction KTS MPH feet Rate Location/Type
Sat 12:18:08 AM 35.1933 -80.9533 184° South 162 186 1,500  Level Atlanta Center
Sat 12:19:21 AM 35.1267 -80.9583 184° South 225 259 3,300 2,031 Climbing Atlanta Center
Sat 12:20:15 AM 35.0650 -80.9886 202° Southwest 284 327 5,800 2,922 Climbing Atlanta Center
Sat 12:21:16 AM 34.9925 -81.0192 199° South 291 335 8,900 3,130 Climbing Atlanta Center
Sat 12:22:33 AM 34.9031 -81.0250 183° South 290 334 13,000 2,715 Climbing Atlanta Center
Sat 12:23:33 AM 34.8325 -81.0375 188° South 273 314 15,100 2,000 Climbing Atlanta Center
Sat 12:26:03 AM 34.6267 -81.0886 192° South 314 361 20,000 1,886 Climbing Jacksonville Center
Sat 12:27:03 AM 34.5353 -81.1106 191° South 334 384 21,700 1,500 Climbing Jacksonville Center
Sat 12:28:03 AM 34.4292 -81.1356 191° South 346 398 23,000 650 Climbing Jacksonville Center
Sat 12:29:03 AM 34.3314 -81.1575 190° South 357 411 23,000 500 Level Jacksonville Center
Sat 12:30:03 AM 34.2378 -81.1769 190° South 357 411 24,000 1,250 Climbing Jacksonville Center
Sat 12:31:03 AM 34.1317 -81.2017 191° South 357 411 25,500 1,500 Climbing Jacksonville Center
Sat 12:32:03 AM 34.0300 -81.2236 190° South 365 420 27,000 1,400 Climbing Jacksonville Center
Sat 12:33:03 AM 33.9389 -81.2806 207° Southwest 373 429 28,300 1,300 Climbing Jacksonville Center
Sat 12:34:03 AM 33.8542 -81.3622 219° Southwest 367 422 29,600 1,200 Climbing Jacksonville Center
Sat 12:35:03 AM 33.7717 -81.4408 218° Southwest 386 444 30,700 1,172 Climbing Jacksonville Center
Sat 12:36:57 AM 33.6236 -81.5817 218° Southwest 387 445 33,000 1,138 Climbing Atlanta Center
Sat 12:37:57 AM 33.5417 -81.6586 218° Southwest 387 445 34,000 500 Climbing Atlanta Center
Sat 12:38:57 AM 33.4575 -81.7356 217° Southwest 387 445 34,000  Level Atlanta Center
Sat 12:39:57 AM 33.3756 -81.8150 219° Southwest 387 445 34,000  Level Atlanta Center
Sat 12:40:57 AM 33.2933 -81.8917 218° Southwest 387 445 34,000  Level Atlanta Center
Sat 12:41:57 AM 33.2111 -81.9706 219° Southwest 387 445 34,000  Level Atlanta Center
Sat 12:42:57 AM 33.1289 -82.0469 218° Southwest 387 445 34,000  Level Atlanta Center
Sat 12:43:57 AM 33.0447 -82.1258 218° Southwest 387 445 34,000  Level Atlanta Center
Sat 12:44:57 AM 32.9603 -82.2042 218° Southwest 387 445 34,000  Level Atlanta Center
Sat 12:45:57 AM 32.8778 -82.2828 219° Southwest 387 445 34,000  Level Atlanta Center
Sat 12:46:57 AM 32.7933 -82.3633 219° Southwest 392 451 34,000  Level Atlanta Center
Sat 12:47:57 AM 32.7067 -82.4392 216° Southwest 387 445 34,000  Level Atlanta Center
Sat 12:48:57 AM 32.6222 -82.5197 219° Southwest 387 445 34,000 450 Level Atlanta Center
Sat 12:49:57 AM 32.5333 -82.6000 217° Southwest 397 457 34,900 500 Climbing Atlanta Center
Sat 12:50:57 AM 32.4383 -82.6903 219° Southwest 397 457 35,000 50 Climbing Atlanta Center
Sat 12:51:57 AM 32.3517 -82.7703 218° Southwest 402 463 35,000  Level Atlanta Center
Sat 12:52:57 AM 32.2647 -82.8475 217° Southwest 402 463 35,000  Level Atlanta Center
Sat 12:53:57 AM 32.1800 -82.9247 218° Southwest 396 456 35,000  Level Atlanta Center
Sat 12:54:57 AM 32.0931 -83.0067 219° Southwest 396 456 35,000 43 Level Atlanta Center
Sat 12:56:15 AM 31.9847 -83.1033 217° Southwest 392 451 35,100 304 Climbing Jacksonville Center
Sat 12:57:15 AM 31.8969 -83.1814 217° Southwest 392 451 35,700 450 Climbing Jacksonville Center
Sat 12:58:15 AM 31.8069 -83.2617 217° Southwest 397 457 36,000 150 Climbing Jacksonville Center
Sat 12:59:15 AM 31.7169 -83.3444 218° Southwest 403 464 36,000  Level Jacksonville Center
Sat 01:00:15 AM 31.6267 -83.4219 216° Southwest 408 470 36,000  Level Jacksonville Center
Sat 01:01:15 AM 31.5367 -83.5044 218° Southwest 414 476 36,000  Level Jacksonville Center
Sat 01:02:15 AM 31.4358 -83.5939 217° Southwest 419 482 36,000  Level Jacksonville Center
Sat 01:03:15 AM 31.3456 -83.6758 218° Southwest 414 476 36,000  Level Jacksonville Center
Sat 01:04:15 AM 31.2533 -83.7578 217° Southwest 414 476 36,000  Level Jacksonville Center
Sat 01:05:15 AM 31.1628 -83.8394 218° Southwest 414 476 36,000  Level Jacksonville Center
Sat 01:06:15 AM 31.0725 -83.9211 218° Southwest 414 476 36,000  Level Jacksonville Center
Sat 01:07:15 AM 30.9800 -84.0025 217° Southwest 414 476 36,000  Level Jacksonville Center
Sat 01:08:15 AM 30.8872 -84.0836 217° Southwest 414 476 36,000  Level Jacksonville Center
Sat 01:09:15 AM 30.7947 -84.1622 216° Southwest 419 482 36,000  Level Jacksonville Center
Sat 01:10:15 AM 30.7019 -84.2456 218° Southwest 419 482 36,000  Level Jacksonville Center
Sat 01:11:15 AM 30.6114 -84.3264 218° Southwest 419 482 36,000  Level Jacksonville Center
Sat 01:12:15 AM 30.5578 -84.4364 241° Southwest 403 464 36,000  Level Jacksonville Center
Sat 01:13:15 AM 30.5647 -84.5572 274° West 375 432 36,000  Level Jacksonville Center
Sat 01:14:15 AM 30.5733 -84.6853 274° West 392 451 36,000  Level Jacksonville Center
Sat 01:15:15 AM 30.5756 -84.8156 271° West 402 463 36,000  Level Jacksonville Center
Sat 01:16:15 AM 30.5672 -84.9458 266° West 407 468 36,000  Level Jacksonville Center
Sat 01:17:15 AM 30.5547 -85.0781 264° West 407 468 36,000 -300 Level Jacksonville Center
Sat 01:18:15 AM 30.5442 -85.2056 265° West 407 468 35,400 -900 Descending Jacksonville Center
Sat 01:19:15 AM 30.5314 -85.3331 263° West 407 468 34,200 -1,500 Descending Jacksonville Center
Sat 01:20:15 AM 30.5158 -85.4750 263° West 407 468 32,400 -1,700 Descending Jacksonville Center
Sat 01:21:15 AM 30.4842 -85.6019 254° West 407 468 30,800 -1,700 Descending Jacksonville Center
Sat 01:22:15 AM 30.4564 -85.7289 256° West 412 474 29,000 -1,700 Descending Jacksonville Center
Sat 01:23:15 AM 30.4286 -85.8461 255° West 406 467 27,400 -1,350 Descending Jacksonville Center
Sat 01:24:15 AM 30.4028 -85.9608 255° West 388 447 26,300 -700 Descending Jacksonville Center
Sat 01:25:15 AM 30.3772 -86.0731 255° West 372 428 26,000 -150 Descending Jacksonville Center
Sat 01:26:15 AM 30.3533 -86.1881 256° West 367 422 26,000  Level Jacksonville Center
Sat 01:27:15 AM 30.3275 -86.3000 255° West 367 422 26,000  Level Jacksonville Center
Sat 01:28:15 AM 30.3033 -86.4147 256° West 372 428 26,000  Level Jacksonville Center
Sat 01:29:15 AM 30.2897 -86.5322 262° West 372 428 26,000  Level Jacksonville Center
Sat 01:30:15 AM 30.2842 -86.6497 267° West 367 422 26,000  Level Jacksonville Center
Sat 01:31:15 AM 30.2767 -86.7625 266° West 367 422 26,000  Level Jacksonville Center
Sat 01:32:15 AM 30.2647 -86.8797 263° West 367 422 26,000  Level Jacksonville Center
Sat 01:33:15 AM 30.2589 -86.9997 267° West 367 422 26,000  Level Jacksonville Center
Sat 01:34:59 AM 30.2461 -87.2044 266° West 368 423 26,000  Level Houston Center
Sat 01:36:00 AM 30.2356 -87.3258 264° West 376 433 26,000  Level Houston Center
Sat 01:37:00 AM 30.2289 -87.4453 266° West 375 432 26,000  Level Houston Center
Sat 01:38:01 AM 30.2197 -87.5639 265° West 372 428 26,000  Level Houston Center
Sat 01:39:01 AM 30.2103 -87.6811 265° West 368 423 26,000  Level Houston Center
Sat 01:40:01 AM 30.2019 -87.8006 265° West 371 427 26,000  Level Houston Center
Sat 01:41:02 AM 30.1925 -87.9206 265° West 373 429 26,000  Level Houston Center
Sat 01:42:02 AM 30.1831 -88.0408 265° West 375 432 26,000  Level Houston Center
Sat 01:43:02 AM 30.1731 -88.1611 265° West 376 433 26,000  Level Houston Center
Sat 01:44:03 AM 30.1636 -88.2803 265° West 374 430 26,000  Level Houston Center
Sat 01:45:03 AM 30.1539 -88.4000 265° West 373 429 26,000  Level Houston Center
Sat 01:46:03 AM 30.1447 -88.5178 265° West 368 423 26,000  Level Houston Center
Sat 01:47:04 AM 30.1342 -88.6372 264° West 372 428 26,000 -496 Level Houston Center
Sat 01:48:04 AM 30.1267 -88.7425 265° West 373 429 25,000 -1,450 Descending Houston Center
Sat 01:49:04 AM 30.1178 -88.8581 265° West 363 418 23,100 -1,835 Descending Houston Center
Sat 01:50:05 AM 30.1081 -88.9669 264° West 345 397 21,300 -1,785 Descending Houston Center
Sat 01:51:05 AM 30.0992 -89.0742 265° West 337 388 19,500 -1,867 Descending Houston Center
Sat 01:51:35 AM 30.0944 -89.1436 266° West 331 381 18,500 -1,700 Descending Houston Center
Sat 01:52:05 AM 30.0903 -89.1775 262° West 325 374 17,800 -1,671 Descending Houston Center
Sat 01:52:54 AM 30.0825 -89.2717 265° West 301 346 16,300 -1,651 Descending Houston Center
Sat 01:53:54 AM 30.0756 -89.3633 265° West 288 331 14,800 -1,537 Descending Houston Center
Sat 01:54:55 AM 30.0664 -89.4550 263° West 284 327 13,200 -1,488 Descending Houston Center
Sat 01:55:55 AM 30.0592 -89.5442 265° West 281 323 11,800 -1,339 Descending Houston Center
Sat 01:56:56 AM 30.0497 -89.6311 263° West 275 316 10,500 -1,377 Descending Houston Center
Sat 01:57:57 AM 30.0531 -89.7247 272° West 272 313 9,000 -1,488 Descending Houston Center
Sat 01:58:57 AM 30.0622 -89.8108 277° West 270 311 7,500 -1,537 Descending Houston Center
Sat 01:59:58 AM 30.0714 -89.8969 277° West 267 307 5,900 -1,190 Descending Houston Center
Sat 02:00:58 AM 30.0781 -89.9758 276° West 245 282 5,100 -1,041 Descending Houston Center
Sat 02:01:59 AM 30.0803 -90.0456 272° West 212 244 3,800 -1,033 Descending Houston Center
Sat 02:03:00 AM 30.0825 -90.1128 272° West 209 241 3,000 -446 Descending Houston Center
Sat 02:04:00 AM 30.0867 -90.1797 274° West 213 245 2,900 -496 Descending Houston Center
Sat 02:05:01 AM 30.0889 -90.2542 272° West 209 241 2,000 -422 Descending Houston Center
Sat 02:06:08 AM 30.0889 -90.3239 270° West 205 236 2,000 -142 Level Houston Center
Sat 02:07:08 AM 30.0439 -90.3519 208° Southwest 178 205 1,700 -645 Descending Houston Center
Sat 02:08:09 AM 30.0075 -90.3294 152° Southeast 161 185 700 -984 Descending Houston Center

Login

Don't have an account? Register now (free) for customized features, flight alerts, and more!